LFLV

Vichy-Charmeil Airport

Airport
ICAO code
LFLV
IATA Code
VHY
Summary
ICAO Region
EUR
ICAO Territory
Location

, Auvergne

Serving
Vichy
Elevation
817 ft
Coordinates
46° 10' 11" N , 3° 24' 13" E
Metar
Observation
LFLV 171100Z AUTO VRB03KT CAVOK 24/14 Q1011
Station
Vichy
Date/Time
2022-08-17 11:00:00
Wind speed
03 kts
Lowest cloud amount
clouds and visibility OK
Temperature
24°C
Dew point
14°C
Humidity
53%
QNH
1011 hPa
Weather condition
n/a

Runways

Designator Length Width Surface Rops
1/19 2200 45 ASP No/No

Airport map

Aerial View

SKYbrary Partners:

Safety knowledge contributed by: